createdAt,value
2022-10-15T00:01:19.855Z,23.15
2022-10-15T00:03:21.456Z,20.75
2022-10-15T00:05:23.067Z,23.60
2022-10-15T00:07:25.117Z,23.05
2022-10-15T00:09:26.799Z,22.05
2022-10-15T00:11:28.784Z,21.80
2022-10-15T00:13:30.563Z,22.20
2022-10-15T00:15:32.123Z,22.40
2022-10-15T00:17:33.988Z,20.55
2022-10-15T00:19:35.500Z,20.95
2022-10-15T00:21:37.411Z,22.20
2022-10-15T00:23:38.988Z,22.52
2022-10-15T00:25:42.489Z,22.58
2022-10-15T00:27:43.938Z,23.90
2022-10-15T00:29:45.418Z,21.55
2022-10-15T00:31:46.968Z,22.15
2022-10-15T00:33:49.218Z,24.50
2022-10-15T00:35:58.043Z,23.80
2022-10-15T00:37:59.501Z,27.15
2022-10-15T00:42:07.699Z,25.38
2022-10-15T00:44:37.519Z,23.40
2022-10-15T00:46:43.454Z,24.85
2022-10-15T00:48:46.692Z,23.83
2022-10-15T00:50:48.280Z,26.13
2022-10-15T00:52:49.676Z,21.83
2022-10-15T00:54:59.223Z,22.05
2022-10-15T00:57:01.480Z,24.80
2022-10-15T00:59:05.839Z,22.83
2022-10-15T01:01:08.761Z,23.17
2022-10-15T01:03:12.821Z,23.23
2022-10-15T01:05:17.223Z,25.23
2022-10-15T01:07:20.714Z,23.08
2022-10-15T01:09:22.863Z,23.02
2022-10-15T01:11:33.479Z,25.15
2022-10-15T01:13:38.302Z,24.20
2022-10-15T01:16:10.771Z,25.20
2022-10-15T01:18:15.555Z,24.98
2022-10-15T01:20:50.367Z,21.98
2022-10-15T01:23:11.428Z,21.10
2022-10-15T01:25:14.842Z,19.50
2022-10-15T01:27:38.183Z,22.42
2022-10-15T01:29:55.195Z,21.30
2022-10-15T01:32:08.604Z,21.52
2022-10-15T01:36:23.412Z,21.35
2022-10-15T01:38:51.464Z,21.17
2022-10-15T01:40:58.887Z,24.15
2022-10-15T01:43:02.952Z,21.88
2022-10-15T01:45:09.211Z,22.15
2022-10-15T01:47:21.865Z,21.67
2022-10-15T01:49:26.385Z,24.30
2022-10-15T01:53:30.381Z,23.70
2022-10-15T01:55:32.707Z,25.92
2022-10-15T01:57:34.807Z,23.58
2022-10-15T01:59:36.275Z,21.70
2022-10-15T02:01:37.713Z,24.20
2022-10-15T02:03:49.517Z,23.15
2022-10-15T02:05:53.835Z,22.63
2022-10-15T02:07:58.977Z,23.63
2022-10-15T02:10:09.447Z,21.70
2022-10-15T02:12:10.912Z,20.92
2022-10-15T02:14:15.987Z,19.48
2022-10-15T02:16:17.533Z,21.45
2022-10-15T02:18:25.346Z,19.80
2022-10-15T02:20:33.090Z,18.73
2022-10-15T02:22:37.887Z,20.30
2022-10-15T02:24:41.739Z,16.42
2022-10-15T02:26:43.588Z,16.88
2022-10-15T02:28:46.365Z,16.80
2022-10-15T02:30:49.732Z,16.50
2022-10-15T02:32:52.863Z,18.23
2022-10-15T02:34:54.742Z,15.90
2022-10-15T02:36:58.344Z,14.48
2022-10-15T02:39:01.763Z,15.48
2022-10-15T02:41:03.700Z,14.60
2022-10-15T02:43:09.449Z,16.77
2022-10-15T02:45:11.060Z,14.60
2022-10-15T02:47:12.736Z,14.35
2022-10-15T02:49:14.220Z,13.85
2022-10-15T02:51:15.683Z,13.57
2022-10-15T02:53:17.138Z,13.52
2022-10-15T02:55:18.796Z,15.50
2022-10-15T02:57:20.736Z,15.32
2022-10-15T02:59:22.509Z,16.02
2022-10-15T03:01:24.459Z,14.98
2022-10-15T03:03:25.928Z,14.98
2022-10-15T03:07:30.136Z,15.70
2022-10-15T03:09:31.715Z,17.23
2022-10-15T03:11:33.202Z,15.82
2022-10-15T03:13:38.229Z,15.93
2022-10-15T03:15:39.929Z,16.23
2022-10-15T03:17:41.554Z,14.73
2022-10-15T03:19:43.000Z,14.77
2022-10-15T03:21:44.459Z,13.77
2022-10-15T03:23:45.883Z,14.90
2022-10-15T03:25:47.746Z,15.57
2022-10-15T03:27:49.261Z,15.00
2022-10-15T03:29:50.843Z,13.55
2022-10-15T03:31:52.583Z,14.73
2022-10-15T03:33:54.049Z,15.55
2022-10-15T03:35:55.804Z,13.63
2022-10-15T03:37:57.246Z,14.52
2022-10-15T03:39:58.741Z,15.43
2022-10-15T03:42:00.238Z,15.13
2022-10-15T03:44:02.520Z,14.90
2022-10-15T03:46:04.817Z,16.08
2022-10-15T03:48:06.467Z,14.55
2022-10-15T03:50:08.285Z,14.75
2022-10-15T03:52:11.601Z,13.80
2022-10-15T03:54:13.660Z,13.10
2022-10-15T03:56:17.345Z,11.88
2022-10-15T03:58:19.365Z,13.32
2022-10-15T04:00:20.860Z,14.77
2022-10-15T04:02:24.322Z,14.85
2022-10-15T04:06:29.071Z,12.88
2022-10-15T04:08:30.612Z,12.82
2022-10-15T04:10:33.864Z,13.80
2022-10-15T04:12:37.661Z,12.85
2022-10-15T04:14:40.219Z,11.85
2022-10-15T04:16:41.930Z,13.40
2022-10-15T04:18:45.070Z,12.10
2022-10-15T04:20:47.010Z,13.80
2022-10-15T04:22:48.500Z,12.27
2022-10-15T04:24:50.767Z,11.52
2022-10-15T04:26:52.284Z,12.00
2022-10-15T04:28:55.614Z,10.63
2022-10-15T04:30:59.769Z,13.20
2022-10-15T04:33:01.287Z,13.20
2022-10-15T04:35:03.219Z,13.35
2022-10-15T04:37:06.195Z,13.43
2022-10-15T04:39:12.263Z,12.17
2022-10-15T04:41:18.238Z,12.55
2022-10-15T04:43:21.269Z,11.65
2022-10-15T04:47:25.954Z,10.02
2022-10-15T04:49:27.756Z,11.55
2022-10-15T04:51:29.207Z,10.38
2022-10-15T04:53:31.415Z,9.68
2022-10-15T04:55:32.864Z,10.25
2022-10-15T04:57:34.735Z,9.98
2022-10-15T04:59:36.351Z,10.63
2022-10-15T05:01:37.872Z,9.50
2022-10-15T05:03:44.134Z,9.77
2022-10-15T05:05:46.692Z,9.63
2022-10-15T05:07:48.224Z,10.68
2022-10-15T05:09:49.957Z,10.95
2022-10-15T05:11:51.586Z,10.05
2022-10-15T05:13:54.587Z,9.98
2022-10-15T05:15:56.135Z,10.95
2022-10-15T05:17:57.657Z,9.40
2022-10-15T05:19:59.324Z,10.73
2022-10-15T05:22:00.844Z,10.82
2022-10-15T05:24:02.422Z,10.85
2022-10-15T05:26:04.760Z,9.60
2022-10-15T05:28:06.496Z,9.30
2022-10-15T05:30:08.207Z,10.98
2022-10-15T05:32:09.734Z,10.20
2022-10-15T05:34:11.443Z,9.68
2022-10-15T05:36:19.932Z,11.13
2022-10-15T05:38:21.430Z,10.52
2022-10-15T05:40:22.929Z,13.05
2022-10-15T05:42:24.571Z,11.60
2022-10-15T05:44:26.160Z,10.13
2022-10-15T05:46:28.126Z,10.57
2022-10-15T05:48:29.651Z,9.40
2022-10-15T05:50:31.234Z,10.88
2022-10-15T05:52:32.944Z,9.95
2022-10-15T05:54:34.485Z,10.48
2022-10-15T05:56:36.036Z,9.45
2022-10-15T05:58:38.238Z,10.10
2022-10-15T06:00:39.884Z,8.75
2022-10-15T06:02:41.712Z,9.05
2022-10-15T06:04:43.576Z,11.02
2022-10-15T06:06:45.505Z,9.65
2022-10-15T06:08:47.482Z,9.43
2022-10-15T06:10:49.138Z,10.02
2022-10-15T06:12:51.268Z,9.73
2022-10-15T06:14:52.740Z,9.00
2022-10-15T06:16:55.076Z,11.02
2022-10-15T06:18:56.807Z,10.60
2022-10-15T06:20:58.631Z,10.40
2022-10-15T06:23:01.027Z,11.38
2022-10-15T06:25:02.776Z,11.45
2022-10-15T06:27:04.572Z,10.68
2022-10-15T06:29:06.108Z,9.85
2022-10-15T06:31:07.798Z,9.52
2022-10-15T06:35:11.503Z,9.00
2022-10-15T06:37:13.336Z,10.15
2022-10-15T06:39:14.957Z,9.85
2022-10-15T06:41:17.083Z,9.13
2022-10-15T06:43:18.555Z,9.63
2022-10-15T06:45:21.838Z,9.15
2022-10-15T06:47:23.649Z,10.25
2022-10-15T06:49:25.477Z,8.82
2022-10-15T06:51:26.995Z,6.90
2022-10-15T06:53:29.233Z,7.53
2022-10-15T06:55:32.644Z,9.18
2022-10-15T06:57:44.216Z,7.28
2022-10-15T06:59:48.167Z,7.43
2022-10-15T07:01:49.671Z,7.72
2022-10-15T07:03:51.632Z,7.38
2022-10-15T07:05:53.183Z,5.80
2022-10-15T07:07:57.453Z,5.97
2022-10-15T07:09:59.851Z,8.57
2022-10-15T07:12:03.021Z,6.05
2022-10-15T07:14:04.946Z,7.32
2022-10-15T07:16:11.481Z,6.35
2022-10-15T07:18:13.387Z,5.85
2022-10-15T07:20:20.249Z,5.93
2022-10-15T07:22:25.596Z,6.60
2022-10-15T07:24:29.094Z,5.65
2022-10-15T07:26:31.696Z,5.97
2022-10-15T07:28:33.425Z,4.97
2022-10-15T07:30:37.059Z,5.85
2022-10-15T07:32:38.801Z,3.95
2022-10-15T07:34:40.293Z,4.47
2022-10-15T07:36:41.803Z,6.00
2022-10-15T07:38:43.610Z,5.13
2022-10-15T07:40:45.311Z,4.15
2022-10-15T07:42:54.363Z,3.97
2022-10-15T07:44:57.670Z,4.07
2022-10-15T07:47:01.713Z,3.65
2022-10-15T07:49:03.260Z,4.30
2022-10-15T07:51:07.659Z,2.53
2022-10-15T07:53:11.167Z,4.10
2022-10-15T07:55:13.380Z,3.78
2022-10-15T07:57:14.825Z,2.53
2022-10-15T07:59:16.320Z,2.08
2022-10-15T08:01:18.434Z,1.50
2022-10-15T08:03:20.007Z,1.10
2022-10-15T08:05:21.625Z,0.77
2022-10-15T08:07:23.338Z,0.60
2022-10-15T08:09:24.853Z,0.90
2022-10-15T08:11:26.383Z,0.63
2022-10-15T08:13:27.888Z,0.70
2022-10-15T08:15:29.458Z,0.70
2022-10-15T08:17:31.055Z,0.43
2022-10-15T08:19:32.969Z,0.65
2022-10-15T08:21:34.400Z,0.80
2022-10-15T08:23:36.511Z,0.55
2022-10-15T08:25:38.176Z,0.45
2022-10-15T08:27:39.701Z,0.32
2022-10-15T08:29:41.234Z,0.55
2022-10-15T08:31:42.740Z,0.40
2022-10-15T08:33:46.077Z,0.65
2022-10-15T08:35:47.743Z,0.52
2022-10-15T08:37:49.352Z,0.60
2022-10-15T08:39:51.021Z,0.63
2022-10-15T08:41:57.304Z,1.17
2022-10-15T08:43:59.330Z,0.70
2022-10-15T08:46:02.779Z,0.60
2022-10-15T08:48:11.214Z,0.55
2022-10-15T08:50:19.858Z,0.57
2022-10-15T08:52:24.122Z,0.55
2022-10-15T08:54:26.062Z,0.70
2022-10-15T08:56:30.203Z,0.60
2022-10-15T08:58:43.196Z,0.70
2022-10-15T09:00:49.551Z,0.82
2022-10-15T09:02:51.753Z,0.55
2022-10-15T09:04:55.520Z,0.80
2022-10-15T09:07:02.093Z,0.38
2022-10-15T09:09:18.329Z,0.82
2022-10-15T09:11:38.182Z,1.05
2022-10-15T09:13:41.298Z,0.65
2022-10-15T09:15:51.778Z,0.98
2022-10-15T09:17:55.650Z,0.85
2022-10-15T09:22:00.943Z,0.90
2022-10-15T09:26:24.137Z,0.73
2022-10-15T09:28:28.200Z,1.75
2022-10-15T09:30:29.940Z,0.85
2022-10-15T09:32:35.766Z,0.60
2022-10-15T09:34:40.163Z,0.82
2022-10-15T09:36:46.387Z,1.30
2022-10-15T09:39:00.823Z,0.93
2022-10-15T09:41:02.374Z,0.85
2022-10-15T09:43:04.728Z,1.00
2022-10-15T09:45:09.800Z,1.98
2022-10-15T09:47:25.015Z,1.17
2022-10-15T09:49:29.383Z,0.73
2022-10-15T09:51:46.441Z,1.00
2022-10-15T09:53:47.879Z,1.17
2022-10-15T09:55:53.934Z,1.23
2022-10-15T09:58:00.657Z,0.90
2022-10-15T10:00:08.955Z,1.48
2022-10-15T10:02:21.264Z,1.05
2022-10-15T10:04:27.392Z,1.50
2022-10-15T10:06:29.501Z,2.10
2022-10-15T10:08:35.583Z,1.10
2022-10-15T10:10:39.222Z,0.93
2022-10-15T10:12:44.921Z,1.10
2022-10-15T10:14:53.165Z,0.68
2022-10-15T10:17:15.880Z,1.17
2022-10-15T10:19:17.699Z,0.85
2022-10-15T10:21:27.592Z,1.17
2022-10-15T10:23:37.192Z,1.25
2022-10-15T10:25:41.915Z,1.58
2022-10-15T10:27:45.253Z,1.00
2022-10-15T10:29:54.547Z,1.07
2022-10-15T10:31:57.065Z,0.70
2022-10-15T10:34:01.581Z,1.77
2022-10-15T10:36:05.067Z,1.40
2022-10-15T10:40:21.355Z,1.02
2022-10-15T10:42:26.999Z,1.20
2022-10-15T10:44:30.637Z,1.17
2022-10-15T10:46:33.840Z,1.02
2022-10-15T10:48:44.289Z,1.48
2022-10-15T10:50:48.147Z,1.10
2022-10-15T10:52:50.470Z,1.20
2022-10-15T10:55:12.411Z,2.13
2022-10-15T10:57:15.852Z,1.73
2022-10-15T10:59:27.056Z,1.25
2022-10-15T11:01:29.516Z,2.03
2022-10-15T11:03:33.494Z,0.93
2022-10-15T11:05:38.977Z,1.00
2022-10-15T11:07:50.373Z,1.02
2022-10-15T11:09:58.043Z,1.40
2022-10-15T11:12:19.334Z,0.93
2022-10-15T11:14:26.773Z,1.67
2022-10-15T11:16:47.119Z,1.50
2022-10-15T11:18:56.261Z,1.20
2022-10-15T11:21:16.107Z,1.30
2022-10-15T11:23:17.573Z,1.70
2022-10-15T11:25:39.383Z,1.02
2022-10-15T11:27:58.911Z,1.90
2022-10-15T11:30:00.353Z,1.15
2022-10-15T11:32:14.667Z,0.90
2022-10-15T11:34:19.963Z,3.22
2022-10-15T11:36:21.537Z,1.05
2022-10-15T11:38:35.697Z,1.13
2022-10-15T11:40:45.068Z,1.40
2022-10-15T11:42:46.965Z,1.25
2022-10-15T11:45:12.052Z,2.03
2022-10-15T11:47:32.580Z,1.00
2022-10-15T11:49:54.352Z,1.80
2022-10-15T11:52:22.281Z,1.05
2022-10-15T11:54:45.044Z,1.55
2022-10-15T11:56:48.792Z,1.70
2022-10-15T11:59:08.809Z,1.70
2022-10-15T12:01:31.059Z,1.52
2022-10-15T12:03:36.000Z,1.90
2022-10-15T12:05:40.059Z,0.90
2022-10-15T12:07:43.431Z,2.00
2022-10-15T12:09:47.214Z,1.52
2022-10-15T12:11:51.659Z,1.90
2022-10-15T12:14:07.315Z,1.80
2022-10-15T12:16:25.191Z,2.05
2022-10-15T12:18:26.697Z,1.98
2022-10-15T12:20:28.552Z,1.42
2022-10-15T12:22:34.138Z,1.85
2022-10-15T12:24:44.775Z,1.85
2022-10-15T12:26:46.538Z,1.38
2022-10-15T12:28:48.898Z,1.60
2022-10-15T12:30:54.818Z,1.40
2022-10-15T12:32:56.338Z,1.38
2022-10-15T12:34:59.519Z,1.15
2022-10-15T12:37:02.789Z,1.65
2022-10-15T12:39:12.798Z,1.80
2022-10-15T12:41:34.556Z,1.70
2022-10-15T12:43:37.763Z,2.05
2022-10-15T12:45:40.824Z,1.77
2022-10-15T12:47:46.068Z,2.00
2022-10-15T12:49:57.595Z,2.55
2022-10-15T12:51:59.695Z,2.08
2022-10-15T12:54:02.481Z,2.08
2022-10-15T12:56:09.724Z,2.15
2022-10-15T12:58:29.727Z,2.25
2022-10-15T13:00:31.498Z,1.88
2022-10-15T13:02:37.981Z,1.85
2022-10-15T13:04:40.565Z,1.70
2022-10-15T13:06:42.101Z,1.90
2022-10-15T13:08:46.352Z,2.17
2022-10-15T13:10:50.737Z,1.38
2022-10-15T13:15:04.653Z,1.33
2022-10-15T13:17:17.437Z,1.35
2022-10-15T13:19:27.878Z,2.35
2022-10-15T13:21:50.571Z,1.25
2022-10-15T13:23:54.030Z,1.50
2022-10-15T13:28:00.459Z,1.52
2022-10-15T13:32:11.201Z,1.92
2022-10-15T13:34:17.739Z,1.60
2022-10-15T13:36:25.419Z,2.88
2022-10-15T13:38:28.005Z,2.33
2022-10-15T13:40:31.890Z,1.90
2022-10-15T13:42:35.861Z,1.83
2022-10-15T13:44:38.054Z,1.70
2022-10-15T13:46:39.679Z,1.50
2022-10-15T13:48:45.130Z,2.45
2022-10-15T13:50:49.327Z,2.80
2022-10-15T13:53:04.910Z,1.75
2022-10-15T13:55:15.984Z,2.03
2022-10-15T13:57:18.125Z,2.53
2022-10-15T13:59:21.699Z,1.33
2022-10-15T14:01:24.968Z,1.60
2022-10-15T14:03:36.524Z,1.52
2022-10-15T14:05:39.473Z,2.10
2022-10-15T14:07:41.325Z,3.55
2022-10-15T14:09:43.016Z,2.08
2022-10-15T14:11:44.995Z,4.47
2022-10-15T14:13:47.782Z,4.95
2022-10-15T14:16:07.698Z,1.95
2022-10-15T14:18:09.951Z,3.45
2022-10-15T14:20:26.882Z,3.53
2022-10-15T14:22:29.564Z,2.58
2022-10-15T14:24:31.457Z,9.50
2022-10-15T14:26:33.992Z,4.13
2022-10-15T14:28:35.559Z,5.10
2022-10-15T14:30:37.206Z,3.60
2022-10-15T14:32:46.373Z,3.72
2022-10-15T14:34:48.569Z,1.95
2022-10-15T14:36:50.200Z,1.80
2022-10-15T14:38:53.698Z,2.60
2022-10-15T14:41:06.503Z,2.00
2022-10-15T14:43:16.229Z,4.18
2022-10-15T14:45:18.545Z,5.95
2022-10-15T14:47:24.349Z,2.78
2022-10-15T14:49:26.391Z,4.07
2022-10-15T14:51:28.503Z,2.15
2022-10-15T14:53:32.737Z,1.85
2022-10-15T14:55:38.349Z,2.53
2022-10-15T14:57:41.536Z,2.47
2022-10-15T14:59:42.955Z,2.22
2022-10-15T15:02:01.865Z,2.40
2022-10-15T15:04:04.658Z,2.05
2022-10-15T15:06:06.700Z,1.95
2022-10-15T15:08:09.262Z,2.35
2022-10-15T15:10:11.101Z,1.52
2022-10-15T15:12:17.538Z,3.33
2022-10-15T15:14:23.909Z,2.25
2022-10-15T15:16:25.402Z,2.97
2022-10-15T15:18:28.780Z,2.78
2022-10-15T15:20:30.500Z,3.35
2022-10-15T15:22:32.804Z,3.05
2022-10-15T15:24:34.303Z,3.33
2022-10-15T15:26:35.730Z,3.88
2022-10-15T15:28:37.518Z,3.25
2022-10-15T15:30:40.938Z,2.53
2022-10-15T15:32:42.508Z,2.20
2022-10-15T15:34:44.340Z,2.33
2022-10-15T15:36:45.764Z,1.80
2022-10-15T15:38:47.140Z,2.15
2022-10-15T15:40:48.609Z,2.03
2022-10-15T15:42:50.882Z,2.15
2022-10-15T15:44:52.386Z,1.75
2022-10-15T15:46:55.756Z,2.80
2022-10-15T15:48:59.189Z,2.17
2022-10-15T15:51:08.216Z,2.38
2022-10-15T15:53:11.634Z,3.25
2022-10-15T15:55:13.840Z,2.45
2022-10-15T15:57:15.691Z,2.40
2022-10-15T15:59:19.318Z,2.35
2022-10-15T16:01:21.438Z,2.05
2022-10-15T16:03:23.255Z,2.50
2022-10-15T16:05:25.207Z,2.30
2022-10-15T16:07:28.551Z,1.80
2022-10-15T16:09:31.830Z,2.28
2022-10-15T16:11:34.071Z,2.35
2022-10-15T16:13:38.446Z,3.55
2022-10-15T16:15:40.696Z,6.20
2022-10-15T16:17:43.164Z,6.63
2022-10-15T16:19:44.963Z,3.70
2022-10-15T16:21:48.626Z,4.15
2022-10-15T16:23:52.649Z,4.38
2022-10-15T16:25:57.396Z,3.90
2022-10-15T16:28:02.857Z,3.53
2022-10-15T16:30:06.980Z,2.45
2022-10-15T16:32:09.474Z,4.30
2022-10-15T16:34:11.024Z,2.63
2022-10-15T16:36:13.685Z,3.97
2022-10-15T16:38:17.450Z,2.97
2022-10-15T16:40:19.152Z,2.90
2022-10-15T16:42:22.930Z,1.98
2022-10-15T16:44:26.886Z,2.90
2022-10-15T16:46:28.659Z,2.47
2022-10-15T16:48:32.282Z,2.58
2022-10-15T16:50:34.182Z,2.78
2022-10-15T16:52:37.933Z,3.60
2022-10-15T16:54:40.094Z,2.78
2022-10-15T16:56:41.713Z,2.55
2022-10-15T16:58:43.606Z,2.90
2022-10-15T17:00:47.073Z,2.25
2022-10-15T17:02:48.927Z,2.55
2022-10-15T17:04:51.949Z,2.20
2022-10-15T17:06:54.032Z,3.70
2022-10-15T17:09:00.445Z,2.30
2022-10-15T17:11:02.946Z,2.35
2022-10-15T17:13:06.250Z,2.75
2022-10-15T17:15:10.249Z,3.28
2022-10-15T17:17:11.948Z,2.35
2022-10-15T17:19:15.971Z,2.83
2022-10-15T17:21:18.892Z,4.03
2022-10-15T17:23:20.326Z,3.13
2022-10-15T17:25:21.685Z,3.92
2022-10-15T17:27:23.284Z,3.40
2022-10-15T17:29:27.834Z,3.15
2022-10-15T17:31:34.638Z,2.10
2022-10-15T17:33:37.384Z,3.45
2022-10-15T17:35:38.806Z,2.45
2022-10-15T17:37:40.249Z,2.58
2022-10-15T17:39:41.740Z,4.55
2022-10-15T17:41:43.252Z,2.35
2022-10-15T17:43:44.822Z,3.22
2022-10-15T17:45:46.518Z,3.88
2022-10-15T17:47:48.372Z,2.83
2022-10-15T17:49:49.887Z,2.70
2022-10-15T17:51:51.685Z,4.45
2022-10-15T17:53:53.568Z,3.85
2022-10-15T17:55:58.807Z,3.22
2022-10-15T17:58:00.284Z,3.08
2022-10-15T18:00:01.978Z,3.83
2022-10-15T18:02:03.516Z,4.03
2022-10-15T18:04:05.127Z,3.40
2022-10-15T18:06:07.951Z,2.38
2022-10-15T18:08:10.052Z,2.55
2022-10-15T18:10:12.583Z,4.95
2022-10-15T18:12:14.100Z,3.42
2022-10-15T18:14:15.622Z,3.42
2022-10-15T18:16:17.547Z,2.63
2022-10-15T18:18:19.049Z,4.22
2022-10-15T18:20:20.542Z,3.63
2022-10-15T18:22:22.202Z,3.25
2022-10-15T18:24:24.361Z,3.42
2022-10-15T18:26:25.903Z,3.85
2022-10-15T18:28:27.375Z,4.22
2022-10-15T18:30:28.939Z,3.17
2022-10-15T18:32:30.466Z,3.00
2022-10-15T18:34:33.299Z,4.72
2022-10-15T18:36:34.815Z,3.67
2022-10-15T18:38:36.627Z,4.43
2022-10-15T18:40:41.103Z,3.38
2022-10-15T18:42:46.298Z,4.40
2022-10-15T18:44:49.451Z,3.00
2022-10-15T18:46:51.429Z,3.22
2022-10-15T18:48:52.870Z,4.05
2022-10-15T18:50:54.872Z,2.95
2022-10-15T18:52:56.483Z,4.15
2022-10-15T18:54:57.865Z,4.38
2022-10-15T18:56:59.346Z,3.15
2022-10-15T18:59:00.859Z,4.25
2022-10-15T19:01:13.707Z,3.15
2022-10-15T19:03:15.660Z,3.35
2022-10-15T19:05:17.160Z,3.30
2022-10-15T19:07:18.545Z,4.82
2022-10-15T19:09:21.796Z,2.83
2022-10-15T19:11:23.576Z,3.10
2022-10-15T19:13:25.195Z,2.63
2022-10-15T19:15:28.408Z,2.92
2022-10-15T19:17:37.503Z,3.70
2022-10-15T19:19:56.675Z,3.28
2022-10-15T19:22:09.186Z,3.65
2022-10-15T19:24:15.686Z,3.53
2022-10-15T19:26:18.060Z,6.38
2022-10-15T19:28:21.322Z,3.58
2022-10-15T19:30:25.575Z,3.67
2022-10-15T19:34:30.520Z,3.28
2022-10-15T19:36:41.958Z,4.97
2022-10-15T19:38:43.933Z,2.90
2022-10-15T19:40:48.699Z,3.42
2022-10-15T19:42:52.968Z,3.88
2022-10-15T19:44:54.741Z,5.28
2022-10-15T19:46:58.041Z,2.90
2022-10-15T19:49:01.349Z,3.05
2022-10-15T19:51:03.596Z,3.58
2022-10-15T19:53:05.720Z,3.78
2022-10-15T19:55:09.420Z,3.00
2022-10-15T19:57:11.317Z,3.83
2022-10-15T19:59:15.099Z,3.30
2022-10-15T20:01:16.719Z,4.05
2022-10-15T20:03:21.292Z,3.28
2022-10-15T20:05:23.059Z,3.35
2022-10-15T20:07:27.206Z,3.65
2022-10-15T20:09:29.878Z,4.80
2022-10-15T20:11:33.521Z,3.88
2022-10-15T20:15:43.597Z,4.07
2022-10-15T20:17:45.052Z,2.95
2022-10-15T20:19:47.612Z,3.78
2022-10-15T20:21:50.331Z,2.92
2022-10-15T20:23:51.849Z,2.65
2022-10-15T20:25:53.691Z,3.05
2022-10-15T20:27:55.225Z,3.33
2022-10-15T20:29:56.653Z,4.38
2022-10-15T20:32:05.772Z,5.35
2022-10-15T20:34:18.692Z,3.03
2022-10-15T20:36:23.671Z,3.90
2022-10-15T20:38:25.528Z,2.88
2022-10-15T20:40:27.157Z,5.13
2022-10-15T20:42:28.786Z,4.53
2022-10-15T20:44:30.610Z,4.13
2022-10-15T20:46:34.115Z,2.95
2022-10-15T20:48:36.241Z,2.95
2022-10-15T20:50:37.697Z,3.85
2022-10-15T20:52:40.981Z,2.97
2022-10-15T20:54:42.598Z,4.03
2022-10-15T20:56:44.071Z,3.20
2022-10-15T20:58:47.274Z,2.88
2022-10-15T21:00:49.071Z,3.83
2022-10-15T21:02:50.512Z,3.00
2022-10-15T21:04:53.433Z,2.88
2022-10-15T21:06:55.027Z,4.15
2022-10-15T21:08:56.757Z,2.63
2022-10-15T21:11:02.730Z,4.18
2022-10-15T21:13:04.307Z,3.20
2022-10-15T21:15:06.058Z,2.88
2022-10-15T21:17:07.724Z,5.03
2022-10-15T21:19:09.246Z,5.00
2022-10-15T21:21:12.039Z,3.00
2022-10-15T21:23:13.856Z,3.53
2022-10-15T21:25:15.791Z,5.25
2022-10-15T21:27:17.378Z,3.20
2022-10-15T21:29:20.034Z,4.63
2022-10-15T21:31:21.543Z,4.35
2022-10-15T21:33:23.054Z,3.13
2022-10-15T21:35:24.471Z,2.83
2022-10-15T21:37:26.112Z,3.22
2022-10-15T21:39:27.790Z,3.65
2022-10-15T21:41:31.282Z,3.25
2022-10-15T21:43:32.755Z,3.35
2022-10-15T21:45:34.224Z,3.90
2022-10-15T21:47:35.682Z,3.97
2022-10-15T21:49:37.151Z,3.92
2022-10-15T21:51:38.627Z,3.25
2022-10-15T21:53:40.410Z,2.58
2022-10-15T21:55:41.922Z,3.28
2022-10-15T21:57:43.418Z,2.67
2022-10-15T21:59:45.160Z,2.65
2022-10-15T22:01:46.820Z,2.75
2022-10-15T22:03:49.060Z,2.13
2022-10-15T22:05:50.504Z,3.15
2022-10-15T22:07:51.967Z,2.45
2022-10-15T22:09:53.508Z,4.60
2022-10-15T22:11:55.016Z,2.90
2022-10-15T22:13:58.562Z,3.47
2022-10-15T22:16:00.274Z,2.53
2022-10-15T22:18:01.960Z,3.25
2022-10-15T22:20:03.479Z,2.50
2022-10-15T22:22:06.540Z,3.00
2022-10-15T22:24:09.996Z,2.47
2022-10-15T22:26:13.959Z,2.50
2022-10-15T22:28:16.007Z,2.78
2022-10-15T22:30:17.436Z,2.80
2022-10-15T22:32:20.656Z,2.60
2022-10-15T22:34:23.342Z,2.78
2022-10-15T22:36:26.143Z,2.53
2022-10-15T22:38:28.910Z,2.55
2022-10-15T22:40:30.760Z,3.93
2022-10-15T22:42:32.265Z,2.85
2022-10-15T22:44:33.734Z,2.55
2022-10-15T22:46:37.873Z,2.47
2022-10-15T22:48:40.855Z,3.05
2022-10-15T22:50:42.586Z,3.22
2022-10-15T22:52:45.576Z,3.35
2022-10-15T22:54:47.073Z,5.00
2022-10-15T22:56:49.512Z,1.92
2022-10-15T22:58:51.004Z,3.53
2022-10-15T23:00:52.697Z,3.13
2022-10-15T23:02:54.237Z,3.65
2022-10-15T23:04:56.690Z,4.43
2022-10-15T23:06:58.442Z,3.25
2022-10-15T23:09:00.140Z,3.95
2022-10-15T23:11:09.205Z,2.80
2022-10-15T23:13:12.517Z,4.60
2022-10-15T23:15:15.769Z,2.95
2022-10-15T23:17:17.690Z,2.97
2022-10-15T23:19:21.715Z,3.60
2022-10-15T23:23:25.069Z,3.17
2022-10-15T23:25:26.570Z,4.68
2022-10-15T23:27:28.431Z,4.88
2022-10-15T23:29:30.222Z,3.28
2022-10-15T23:31:33.092Z,5.03
2022-10-15T23:33:34.552Z,3.50
2022-10-15T23:37:40.335Z,3.17
2022-10-15T23:39:41.758Z,3.65
2022-10-15T23:41:43.754Z,4.55
2022-10-15T23:43:45.309Z,3.47
2022-10-15T23:45:46.921Z,3.45
2022-10-15T23:47:48.379Z,2.97
2022-10-15T23:49:50.121Z,3.25
2022-10-15T23:51:51.625Z,3.05
2022-10-15T23:53:53.723Z,3.33
2022-10-15T23:55:55.202Z,4.95
2022-10-15T23:57:57.332Z,3.38
2022-10-15T23:59:59.112Z,2.90
